Pagina principale
METAR-TAF:

METAR-TAF

Aeroporti :

Piattaforma petrolifera

Hoorn-a, Paesi Bassi

latitudine: 52-55-05N, longitudine: 4-09-01E, altezza: 41 m

Osservazione

Il bollettino è stato emesso 24 minuti fa, alle 02:55 UTC
Vento 13 kt da ovest/sud-ovest
Temperature 7°C
Umidità 70%
Pressione 1021 hPa
Visibilità 10 km o più
Poco nuvoloso ad un'altezza di 1800 ft

METAR: EHQE 240255Z AUTO 25013KT 9999 FEW018 07/02 Q1021

Ora: 04:19 (03:19 UTC)


TAF: mancante

Osservazioni e previsioni meteorologiche di più di 4000 aeroporti (messaggi METAR e TAF).

Le stazioni disponibili sono rappresentate dai dischi gialli e rossi sulla carta.

Puntare il mouse per vedere il nome della stazione.

Clicca sopra per visualizzare le osservazioni e previsioni meteorologiche.

Per cambiare la mappa : fare clic sui pulsanti verdi con una croce nera per ingrandire, il pulsante verde con un trattino per diminuire, o sulla freccia verde per le mappe adiacenti.


METAR-TAF: